Main page
METAR-TAF:

METAR-TAF

Airports :

Zagreb Airport

Zagreb, Croatia

latitude: 45-44N, longitude: 016-04E, elevation: 106 m

Current weather observation

The report was made 21 minutes ago, at 23:00 UTC
Wind 1 kt from the Southeast
Temperature 20°C
Humidity 60%
Pressure 1021 hPa
Visibility 10 km or more
no clouds below 1500 m and no cumulonimbus

METAR: LDZA 092300Z 14001KT CAVOK 20/12 Q1021 NOSIG

Time: 01:21 (23:21 UTC)

Forecast

The report was made 5 hours and 56 minutes ago, at 17:25 UTC
Forecast valid from 09 at 18 UTC to 10 at 18 UTC
Wind 9 kt from the Northeast
Visibility 10 km or more
no clouds below 1500 m and no cumulonimbus
Probability 30% :
Temporary
from 10 at 04 UTC to 10 at 07 UTC
Few clouds at a height of 5000 ft, Towering cumulus.
rain showers

TAF: LDZA 091725Z 0918/1018 05009KT CAVOK TX30/1013Z TN16/1003Z PROB30 TEMPO 1004/1007 SHRA FEW050TCU

Weather observations and forecasts of more than 4000 airports (METAR and TAF reports).

The available stations are represented by yellow and red dots on the map.

Hover mouse over dot to see the name of the station.

Then click to see weather observations and forecasts.

To change the map : click on the green buttons with a black cross to zoom in, on the green button with a dash to zoom out, or on the green arrows for adjacent maps.


METAR-TAF: